createdAt,value
2017-11-25T00:00:15.687Z,97407.22
2017-11-25T00:00:47.328Z,97411.26
2017-11-25T00:01:18.968Z,97412.75
2017-11-25T00:01:50.613Z,97408.63
2017-11-25T00:02:22.298Z,97413.02
2017-11-25T00:02:53.922Z,97408.93
2017-11-25T00:03:25.547Z,97412.03
2017-11-25T00:03:57.180Z,97410.78
2017-11-25T00:04:28.846Z,97401.95
2017-11-25T00:05:00.531Z,97400.77
2017-11-25T00:05:32.155Z,97397.91
2017-11-25T00:06:03.784Z,97397.88
2017-11-25T00:06:35.408Z,97401.41
2017-11-25T00:07:07.213Z,97398.48
2017-11-25T00:07:38.891Z,97400.72
2017-11-25T00:08:48.525Z,97400.84
2017-11-25T00:09:20.163Z,97398.72
2017-11-25T00:09:52.000Z,97403.47
2017-11-25T00:10:23.640Z,97403.13
2017-11-25T00:10:55.595Z,97405.79
2017-11-25T00:11:27.232Z,97406.33
2017-11-25T00:11:58.876Z,97404.64
2017-11-25T00:12:30.517Z,97407.75
2017-11-25T00:13:02.160Z,97408.98
2017-11-25T00:13:33.803Z,97412.02
2017-11-25T00:14:05.457Z,97406.06
2017-11-25T00:14:37.128Z,97405.63
2017-11-25T00:15:08.755Z,97407.78
2017-11-25T00:15:40.379Z,97401.84
2017-11-25T00:16:12.316Z,97409.59
2017-11-25T00:16:43.957Z,97404.98
2017-11-25T00:17:15.601Z,97411.38
2017-11-25T00:17:47.248Z,97410.13
2017-11-25T00:18:18.911Z,97405.09
2017-11-25T00:18:50.540Z,97410.61
2017-11-25T00:19:22.163Z,97414.45
2017-11-25T00:19:53.812Z,97405.53
2017-11-25T00:20:25.451Z,97406.42
2017-11-25T00:20:57.091Z,97411.56
2017-11-25T00:21:28.736Z,97405.59
2017-11-25T00:22:00.408Z,97411.21
2017-11-25T00:22:32.044Z,97407.41
2017-11-25T00:23:03.672Z,97407.45
2017-11-25T00:23:35.303Z,97410.48
2017-11-25T00:24:06.945Z,97404.50
2017-11-25T00:24:38.586Z,97404.17
2017-11-25T00:25:10.533Z,97408.43
2017-11-25T00:25:42.175Z,97408.43
2017-11-25T00:26:13.803Z,97404.61
2017-11-25T00:26:45.475Z,97403.75
2017-11-25T00:27:17.302Z,97403.34
2017-11-25T00:27:49.053Z,97405.09
2017-11-25T00:28:20.695Z,97403.05
2017-11-25T00:28:52.523Z,97400.48
2017-11-25T00:29:24.288Z,97406.02
2017-11-25T00:29:55.936Z,97405.18
2017-11-25T00:30:27.575Z,97403.08
2017-11-25T00:30:59.251Z,97405.61
2017-11-25T00:31:30.878Z,97407.30
2017-11-25T00:32:02.500Z,97406.45
2017-11-25T00:32:34.123Z,97405.55
2017-11-25T00:33:05.808Z,97405.97
2017-11-25T00:33:37.431Z,97403.91
2017-11-25T00:34:09.258Z,97397.19
2017-11-25T00:34:41.013Z,97406.53
2017-11-25T00:35:12.654Z,97400.59
2017-11-25T00:35:44.292Z,97407.42
2017-11-25T00:36:15.935Z,97407.84
2017-11-25T00:36:47.580Z,97409.53
2017-11-25T00:37:19.211Z,97407.91
2017-11-25T00:37:50.838Z,97407.57
2017-11-25T00:38:22.515Z,97410.50
2017-11-25T00:38:54.142Z,97407.19
2017-11-25T00:39:25.788Z,97405.56
2017-11-25T00:39:57.431Z,97402.58
2017-11-25T00:40:29.070Z,97407.28
2017-11-25T00:41:00.714Z,97405.20
2017-11-25T00:41:32.383Z,97407.84
2017-11-25T00:42:04.010Z,97408.63
2017-11-25T00:42:35.882Z,97407.78
2017-11-25T00:43:07.507Z,97405.22
2017-11-25T00:43:39.135Z,97409.12
2017-11-25T00:44:10.815Z,97408.28
2017-11-25T00:44:42.447Z,97408.72
2017-11-25T00:45:14.071Z,97406.64
2017-11-25T00:45:45.697Z,97402.75
2017-11-25T00:46:17.343Z,97408.36
2017-11-25T00:46:49.083Z,97404.98
2017-11-25T00:47:20.728Z,97409.15
2017-11-25T00:47:52.674Z,97406.50
2017-11-25T00:48:24.313Z,97404.77
2017-11-25T00:48:55.957Z,97404.72
2017-11-25T00:49:27.623Z,97406.73
2017-11-25T00:49:59.249Z,97405.83
2017-11-25T00:50:31.060Z,97413.02
2017-11-25T00:51:02.735Z,97403.61
2017-11-25T00:51:34.474Z,97410.80
2017-11-25T00:52:06.118Z,97403.66
2017-11-25T00:52:37.758Z,97403.67
2017-11-25T00:53:09.399Z,97404.03
2017-11-25T00:53:41.027Z,97404.95
2017-11-25T00:54:12.684Z,97399.77
2017-11-25T00:54:44.323Z,97400.25
2017-11-25T00:55:16.001Z,97401.14
2017-11-25T00:55:47.624Z,97400.72
2017-11-25T00:56:19.560Z,97395.58
2017-11-25T00:56:51.201Z,97401.95
2017-11-25T00:57:22.839Z,97395.16
2017-11-25T00:57:54.484Z,97397.69
2017-11-25T00:58:26.169Z,97396.45
2017-11-25T00:58:57.784Z,97396.50
2017-11-25T00:59:29.415Z,97399.05
2017-11-25T01:00:01.049Z,97387.17
2017-11-25T01:00:32.719Z,97388.42
2017-11-25T01:01:04.351Z,97386.33
2017-11-25T01:01:36.227Z,97379.98
2017-11-25T01:02:07.852Z,97386.73
2017-11-25T01:02:39.487Z,97379.98
2017-11-25T01:03:11.116Z,97385.91
2017-11-25T01:03:42.853Z,97377.02
2017-11-25T01:04:14.526Z,97373.98
2017-11-25T01:04:46.156Z,97379.52
2017-11-25T01:05:17.787Z,97372.75
2017-11-25T01:05:49.421Z,97374.81
2017-11-25T01:06:21.063Z,97376.16
2017-11-25T01:06:52.704Z,97371.91
2017-11-25T01:07:24.346Z,97365.09
2017-11-25T01:07:55.985Z,97364.62
2017-11-25T01:08:27.630Z,97362.11
2017-11-25T01:08:59.288Z,97365.94
2017-11-25T01:09:31.156Z,97359.99
2017-11-25T01:10:02.785Z,97363.34
2017-11-25T01:10:34.412Z,97363.42
2017-11-25T01:11:06.146Z,97357.88
2017-11-25T01:11:37.783Z,97361.25
2017-11-25T01:12:09.550Z,97353.55
2017-11-25T01:12:41.220Z,97354.41
2017-11-25T01:13:12.843Z,97359.49
2017-11-25T01:13:44.468Z,97358.22
2017-11-25T01:14:16.096Z,97353.55
2017-11-25T01:14:47.949Z,97356.15
2017-11-25T01:15:19.589Z,97352.31
2017-11-25T01:15:51.230Z,97353.11
2017-11-25T01:16:22.869Z,97351.42
2017-11-25T01:16:54.512Z,97356.15
2017-11-25T01:17:26.153Z,97356.53
2017-11-25T01:17:57.823Z,97353.55
2017-11-25T01:18:29.447Z,97346.73
2017-11-25T01:19:01.082Z,97345.04
2017-11-25T01:19:32.720Z,97343.39
2017-11-25T01:20:04.367Z,97345.88
2017-11-25T01:20:36.007Z,97342.48
2017-11-25T01:21:07.635Z,97343.39
2017-11-25T01:21:39.297Z,97347.20
2017-11-25T01:22:10.935Z,97351.91
2017-11-25T01:22:42.575Z,97350.15
2017-11-25T01:23:14.216Z,97342.91
2017-11-25T01:23:45.856Z,97342.09
2017-11-25T01:24:17.491Z,97342.13
2017-11-25T01:24:49.144Z,97345.55
2017-11-25T01:25:20.784Z,97345.11
2017-11-25T01:25:52.427Z,97344.28
2017-11-25T01:26:24.095Z,97340.08
2017-11-25T01:26:55.715Z,97342.15
2017-11-25T01:27:27.354Z,97337.05
2017-11-25T01:27:58.990Z,97337.11
2017-11-25T01:28:30.636Z,97343.07
2017-11-25T01:29:02.277Z,97343.14
2017-11-25T01:29:33.920Z,97341.37
2017-11-25T01:30:05.562Z,97340.11
2017-11-25T01:30:37.232Z,97338.40
2017-11-25T01:31:08.855Z,97337.51
2017-11-25T01:31:40.489Z,97342.11
2017-11-25T01:32:12.129Z,97332.75
2017-11-25T01:32:43.770Z,97328.57
2017-11-25T01:33:15.411Z,97331.94
2017-11-25T01:33:47.052Z,97324.69
2017-11-25T01:34:18.716Z,97338.30
2017-11-25T01:34:50.453Z,97332.75
2017-11-25T01:35:22.289Z,97331.05
2017-11-25T01:35:53.927Z,97331.94
2017-11-25T01:36:25.570Z,97324.25
2017-11-25T01:36:57.217Z,97332.34
2017-11-25T01:37:28.855Z,97327.20
2017-11-25T01:38:00.496Z,97327.20
2017-11-25T01:38:32.139Z,97323.39
2017-11-25T01:39:03.785Z,97326.39
2017-11-25T01:39:35.468Z,97325.17
2017-11-25T01:40:07.092Z,97328.60
2017-11-25T01:40:38.720Z,97322.66
2017-11-25T01:41:10.536Z,97328.70
2017-11-25T01:41:42.299Z,97332.58
2017-11-25T01:42:13.937Z,97324.44
2017-11-25T01:42:45.581Z,97328.75
2017-11-25T01:43:17.222Z,97327.07
2017-11-25T01:43:49.053Z,97324.55
2017-11-25T01:44:20.683Z,97321.98
2017-11-25T01:44:52.456Z,97321.64
2017-11-25T01:45:24.101Z,97322.72
2017-11-25T01:45:55.740Z,97316.77
2017-11-25T01:46:27.382Z,97322.66
2017-11-25T01:46:59.024Z,97323.59
2017-11-25T01:47:30.695Z,97320.19
2017-11-25T01:48:02.319Z,97324.84
2017-11-25T01:48:33.950Z,97321.46
2017-11-25T01:49:05.592Z,97321.84
2017-11-25T01:49:37.242Z,97314.44
2017-11-25T01:50:08.880Z,97316.91
2017-11-25T01:50:40.825Z,97314.20
2017-11-25T01:51:12.500Z,97312.07
2017-11-25T01:51:44.123Z,97311.11
2017-11-25T01:52:15.927Z,97309.48
2017-11-25T01:52:47.699Z,97309.91
2017-11-25T01:53:19.345Z,97307.77
2017-11-25T01:53:50.985Z,97305.16
2017-11-25T01:54:22.622Z,97302.27
2017-11-25T01:54:54.269Z,97299.25
2017-11-25T01:55:26.144Z,97304.83
2017-11-25T01:55:57.872Z,97308.73
2017-11-25T01:56:29.507Z,97311.22
2017-11-25T01:57:01.148Z,97303.52
2017-11-25T01:57:32.792Z,97304.73
2017-11-25T01:58:04.733Z,97306.55
2017-11-25T01:58:36.371Z,97310.78
2017-11-25T01:59:08.017Z,97308.96
2017-11-25T01:59:39.656Z,97315.80
2017-11-25T02:00:11.480Z,97320.03
2017-11-25T02:00:43.249Z,97314.42
2017-11-25T02:01:14.893Z,97317.92
2017-11-25T02:01:46.540Z,97317.94
2017-11-25T02:02:18.399Z,97310.33
2017-11-25T02:02:50.028Z,97308.64
2017-11-25T02:03:21.659Z,97310.74
2017-11-25T02:03:53.411Z,97306.07
2017-11-25T02:04:25.050Z,97310.76
2017-11-25T02:04:56.728Z,97308.63
2017-11-25T02:05:28.366Z,97306.93
2017-11-25T02:05:59.998Z,97312.05
2017-11-25T02:06:31.623Z,97309.48
2017-11-25T02:07:03.261Z,97304.75
2017-11-25T02:07:34.902Z,97306.86
2017-11-25T02:08:06.544Z,97312.49
2017-11-25T02:08:38.187Z,97310.33
2017-11-25T02:09:09.828Z,97310.25
2017-11-25T02:09:41.467Z,97309.47
2017-11-25T02:10:13.419Z,97300.14
2017-11-25T02:10:45.099Z,97303.13
2017-11-25T02:11:16.723Z,97305.66
2017-11-25T02:11:48.354Z,97303.52
2017-11-25T02:12:20.300Z,97305.66
2017-11-25T02:12:52.244Z,97295.53
2017-11-25T02:13:23.886Z,97301.44
2017-11-25T02:13:55.523Z,97296.33
2017-11-25T02:14:27.170Z,97298.88
2017-11-25T02:14:58.810Z,97296.75
2017-11-25T02:15:30.452Z,97297.22
2017-11-25T02:16:02.093Z,97293.91
2017-11-25T02:16:33.766Z,97292.16
2017-11-25T02:17:05.388Z,97291.28
2017-11-25T02:17:37.254Z,97289.59
2017-11-25T02:18:08.883Z,97287.05
2017-11-25T02:18:40.611Z,97291.27
2017-11-25T02:19:12.253Z,97286.95
2017-11-25T02:19:43.894Z,97287.44
2017-11-25T02:20:15.534Z,97281.92
2017-11-25T02:20:47.179Z,97284.39
2017-11-25T02:21:18.843Z,97287.86
2017-11-25T02:21:50.524Z,97282.28
2017-11-25T02:22:22.148Z,97292.11
2017-11-25T02:22:53.772Z,97285.67
2017-11-25T02:23:25.399Z,97280.63
2017-11-25T02:23:57.339Z,97282.78
2017-11-25T02:24:28.964Z,97275.20
2017-11-25T02:25:00.591Z,97281.08
2017-11-25T02:25:32.222Z,97270.85
2017-11-25T02:26:03.848Z,97278.52
2017-11-25T02:26:35.476Z,97270.94
2017-11-25T02:27:07.186Z,97273.89
2017-11-25T02:27:38.829Z,97270.78
2017-11-25T02:28:10.471Z,97265.30
2017-11-25T02:28:42.113Z,97266.09
2017-11-25T02:29:13.755Z,97265.66
2017-11-25T02:29:45.397Z,97260.52
2017-11-25T02:30:17.036Z,97263.50
2017-11-25T02:30:48.682Z,97264.37
2017-11-25T02:31:20.323Z,97262.31
2017-11-25T02:31:51.988Z,97264.91
2017-11-25T02:32:23.617Z,97260.63
2017-11-25T02:32:55.300Z,97259.76
2017-11-25T02:33:27.199Z,97250.44
2017-11-25T02:33:58.838Z,97253.38
2017-11-25T02:34:30.481Z,97256.28
2017-11-25T02:35:02.124Z,97264.40
2017-11-25T02:35:33.767Z,97246.08
2017-11-25T02:36:05.715Z,97248.69
2017-11-25T02:36:37.357Z,97246.90
2017-11-25T02:37:09.272Z,97245.29
2017-11-25T02:37:40.900Z,97242.66
2017-11-25T02:38:12.589Z,97242.67
2017-11-25T02:38:44.235Z,97241.05
2017-11-25T02:39:15.877Z,97239.80
2017-11-25T02:39:47.517Z,97246.23
2017-11-25T02:40:19.183Z,97243.70
2017-11-25T02:40:50.807Z,97233.50
2017-11-25T02:41:22.441Z,97240.70
2017-11-25T02:41:54.082Z,97236.48
2017-11-25T02:42:25.726Z,97234.32
2017-11-25T02:42:57.364Z,97236.05
2017-11-25T02:43:29.031Z,97236.03
2017-11-25T02:44:00.656Z,97239.34
2017-11-25T02:44:32.295Z,97236.86
2017-11-25T02:45:04.244Z,97238.57
2017-11-25T02:45:36.199Z,97240.27
2017-11-25T02:46:07.832Z,97235.59
2017-11-25T02:46:39.474Z,97240.27
2017-11-25T02:47:11.123Z,97223.20
2017-11-25T02:47:42.800Z,97240.60
2017-11-25T02:48:14.426Z,97241.90
2017-11-25T02:48:46.060Z,97238.05
2017-11-25T02:49:17.991Z,97238.42
2017-11-25T02:49:49.633Z,97241.39
2017-11-25T02:50:21.332Z,97238.33
2017-11-25T02:50:52.968Z,97233.19
2017-11-25T02:51:24.600Z,97241.30
2017-11-25T02:51:56.229Z,97239.22
2017-11-25T02:52:27.856Z,97237.45
2017-11-25T02:52:59.487Z,97238.73
2017-11-25T02:53:33.080Z,97235.39
2017-11-25T02:54:04.920Z,97232.89
2017-11-25T02:54:36.795Z,97236.70
2017-11-25T02:55:08.430Z,97232.89
2017-11-25T02:55:40.096Z,97231.28
2017-11-25T02:56:11.720Z,97235.59
2017-11-25T02:56:43.343Z,97236.02
2017-11-25T02:57:15.077Z,97236.03
2017-11-25T02:57:46.717Z,97226.34
2017-11-25T02:58:18.362Z,97230.51
2017-11-25T02:58:50.005Z,97228.05
2017-11-25T02:59:21.693Z,97234.84
2017-11-25T02:59:53.319Z,97236.14
2017-11-25T03:00:24.945Z,97235.72
2017-11-25T03:00:57.396Z,97241.67
2017-11-25T03:01:29.068Z,97235.69
2017-11-25T03:02:00.694Z,97235.27
2017-11-25T03:02:32.320Z,97234.02
2017-11-25T03:03:04.060Z,97235.21
2017-11-25T03:03:35.715Z,97231.00
2017-11-25T03:04:07.342Z,97227.20
2017-11-25T03:04:38.985Z,97230.94
2017-11-25T03:05:10.629Z,97230.16
2017-11-25T03:05:42.269Z,97228.03
2017-11-25T03:06:13.929Z,97229.31
2017-11-25T03:06:45.597Z,97219.94
2017-11-25T03:07:17.236Z,97224.19
2017-11-25T03:07:48.860Z,97218.24
2017-11-25T03:08:20.495Z,97218.68
2017-11-25T03:08:52.303Z,97216.55
2017-11-25T03:09:23.927Z,97225.08
2017-11-25T03:09:55.556Z,97216.95
2017-11-25T03:10:27.194Z,97222.09
2017-11-25T03:10:58.820Z,97214.39
2017-11-25T03:11:30.443Z,97225.13
2017-11-25T03:12:02.111Z,97224.72
2017-11-25T03:12:33.736Z,97219.19
2017-11-25T03:13:05.372Z,97222.20
2017-11-25T03:13:37.205Z,97214.94
2017-11-25T03:14:08.847Z,97215.38
2017-11-25T03:14:40.508Z,97216.21
2017-11-25T03:15:12.135Z,97210.17
2017-11-25T03:15:43.773Z,97217.58
2017-11-25T03:16:15.414Z,97211.14
2017-11-25T03:16:47.053Z,97205.68
2017-11-25T03:17:18.698Z,97207.05
2017-11-25T03:17:50.341Z,97206.98
2017-11-25T03:18:21.981Z,97210.77
2017-11-25T03:18:53.640Z,97217.66
2017-11-25T03:19:25.272Z,97205.24
2017-11-25T03:19:56.907Z,97207.38
2017-11-25T03:20:28.550Z,97210.39
2017-11-25T03:21:00.204Z,97209.95
2017-11-25T03:21:32.065Z,97206.10
2017-11-25T03:22:03.688Z,97204.83
2017-11-25T03:22:35.424Z,97198.42
2017-11-25T03:23:07.067Z,97199.21
2017-11-25T03:23:38.706Z,97201.39
2017-11-25T03:24:10.347Z,97195.87
2017-11-25T03:24:41.998Z,97203.95
2017-11-25T03:25:13.853Z,97200.92
2017-11-25T03:25:45.488Z,97203.56
2017-11-25T03:26:17.227Z,97198.04
2017-11-25T03:26:48.864Z,97207.83
2017-11-25T03:27:20.507Z,97207.03
2017-11-25T03:27:52.150Z,97201.09
2017-11-25T03:28:23.793Z,97203.14
2017-11-25T03:28:55.434Z,97199.78
2017-11-25T03:29:27.076Z,97194.31
2017-11-25T03:29:58.717Z,97194.30
2017-11-25T03:30:30.360Z,97192.23
2017-11-25T03:31:01.994Z,97191.39
2017-11-25T03:31:33.642Z,97190.55
2017-11-25T03:32:05.328Z,97184.52
2017-11-25T03:32:36.955Z,97184.52
2017-11-25T03:33:08.592Z,97178.64
2017-11-25T03:33:40.268Z,97176.96
2017-11-25T03:34:11.891Z,97176.91
2017-11-25T03:34:43.514Z,97177.70
2017-11-25T03:35:15.143Z,97173.88
2017-11-25T03:35:46.780Z,97170.44
2017-11-25T03:36:18.407Z,97170.44
2017-11-25T03:36:50.061Z,97165.70
2017-11-25T03:37:22.012Z,97170.70
2017-11-25T03:37:53.961Z,97172.45
2017-11-25T03:38:25.600Z,97169.41
2017-11-25T03:38:57.267Z,97171.12
2017-11-25T03:39:28.891Z,97172.03
2017-11-25T03:40:00.515Z,97171.64
2017-11-25T03:40:32.168Z,97179.30
2017-11-25T03:41:03.815Z,97170.55
2017-11-25T03:41:35.452Z,97178.39
2017-11-25T03:42:07.095Z,97173.89
2017-11-25T03:42:38.739Z,97175.72
2017-11-25T03:43:10.416Z,97182.66
2017-11-25T03:43:42.043Z,97176.42
2017-11-25T03:44:13.676Z,97179.20
2017-11-25T03:44:45.312Z,97176.27
2017-11-25T03:45:16.947Z,97167.47
2017-11-25T03:45:48.590Z,97173.30
2017-11-25T03:46:20.236Z,97174.22
2017-11-25T03:46:51.869Z,97174.62
2017-11-25T03:47:23.514Z,97178.80
2017-11-25T03:47:55.159Z,97176.23
2017-11-25T03:48:26.800Z,97171.91
2017-11-25T03:48:58.457Z,97172.81
2017-11-25T03:49:30.390Z,97174.42
2017-11-25T03:50:02.036Z,97168.94
2017-11-25T03:50:33.678Z,97172.75
2017-11-25T03:51:05.316Z,97169.70
2017-11-25T03:51:36.958Z,97173.95
2017-11-25T03:52:08.800Z,97173.08
2017-11-25T03:52:40.548Z,97172.67
2017-11-25T03:53:12.191Z,97173.52
2017-11-25T03:53:43.856Z,97171.80
2017-11-25T03:54:15.483Z,97173.03
2017-11-25T03:54:47.116Z,97168.73
2017-11-25T03:55:18.757Z,97169.17
2017-11-25T03:55:50.415Z,97166.53
2017-11-25T03:56:22.051Z,97167.86
2017-11-25T03:56:53.699Z,97168.67
2017-11-25T03:57:25.633Z,97163.98
2017-11-25T03:57:57.275Z,97154.62
2017-11-25T03:58:28.916Z,97153.33
2017-11-25T03:59:00.591Z,97154.17
2017-11-25T03:59:32.220Z,97153.73
2017-11-25T04:00:03.846Z,97156.72
2017-11-25T04:00:35.725Z,97150.45
2017-11-25T04:01:07.346Z,97149.16
2017-11-25T04:01:38.975Z,97148.20
2017-11-25T04:02:10.719Z,97142.70
2017-11-25T04:02:42.593Z,97142.17
2017-11-25T04:03:14.221Z,97136.64
2017-11-25T04:03:45.852Z,97129.80
2017-11-25T04:04:17.593Z,97127.66
2017-11-25T04:04:49.236Z,97133.21
2017-11-25T04:05:20.877Z,97126.39
2017-11-25T04:05:52.518Z,97128.88
2017-11-25T04:06:24.160Z,97128.02
2017-11-25T04:06:55.832Z,97129.69
2017-11-25T04:07:27.458Z,97134.81
2017-11-25T04:07:59.124Z,97138.65
2017-11-25T04:08:30.762Z,97128.63
2017-11-25T04:09:02.384Z,97138.20
2017-11-25T04:09:34.318Z,97134.84
2017-11-25T04:10:05.959Z,97140.80
2017-11-25T04:10:37.599Z,97144.28
2017-11-25T04:11:09.225Z,97143.80
2017-11-25T04:11:40.885Z,97144.20
2017-11-25T04:12:12.556Z,97138.65
2017-11-25T04:12:44.188Z,97140.36
2017-11-25T04:13:15.829Z,97143.36
2017-11-25T04:13:47.461Z,97141.64
2017-11-25T04:14:19.094Z,97139.48
2017-11-25T04:14:50.738Z,97138.16
2017-11-25T04:15:22.367Z,97135.61
2017-11-25T04:15:54.021Z,97135.66
2017-11-25T04:16:25.666Z,97120.86
2017-11-25T04:16:57.331Z,97129.48
2017-11-25T04:17:28.958Z,97126.09
2017-11-25T04:18:00.594Z,97126.12
2017-11-25T04:18:32.224Z,97124.75
2017-11-25T04:19:03.872Z,97129.00
2017-11-25T04:19:35.503Z,97126.42
2017-11-25T04:20:07.132Z,97127.27
2017-11-25T04:20:38.797Z,97131.58
2017-11-25T04:21:10.748Z,97125.68
2017-11-25T04:21:42.428Z,97127.83
2017-11-25T04:22:14.060Z,97124.86
2017-11-25T04:22:45.692Z,97121.95
2017-11-25T04:23:18.079Z,97122.36
2017-11-25T04:23:49.699Z,97117.25
2017-11-25T04:24:21.328Z,97109.17
2017-11-25T04:24:53.162Z,97108.59
2017-11-25T04:25:24.796Z,97106.92
2017-11-25T04:25:56.448Z,97108.20
2017-11-25T04:26:28.086Z,97098.42
2017-11-25T04:26:59.764Z,97097.07
2017-11-25T04:27:31.387Z,97093.66
2017-11-25T04:28:03.020Z,97091.97
2017-11-25T04:28:34.964Z,97088.09
2017-11-25T04:29:06.611Z,97094.41
2017-11-25T04:29:38.489Z,97085.47
2017-11-25T04:30:10.116Z,97084.63
2017-11-25T04:30:41.739Z,97083.35
2017-11-25T04:31:13.480Z,97079.08
2017-11-25T04:31:45.121Z,97077.13
2017-11-25T04:32:16.762Z,97066.94
2017-11-25T04:32:48.405Z,97063.20
2017-11-25T04:33:20.047Z,97054.72
2017-11-25T04:33:51.713Z,97050.45
2017-11-25T04:34:23.339Z,97048.75
2017-11-25T04:34:54.973Z,97052.56
2017-11-25T04:35:26.623Z,97057.70
2017-11-25T04:35:58.258Z,97058.20
2017-11-25T04:36:29.943Z,97056.41
2017-11-25T04:37:01.569Z,97063.66
2017-11-25T04:37:33.199Z,97062.45
2017-11-25T04:38:05.131Z,97053.44
2017-11-25T04:38:36.773Z,97056.06
2017-11-25T04:39:08.724Z,97050.95
2017-11-25T04:39:40.364Z,97054.39
2017-11-25T04:40:12.033Z,97048.77
2017-11-25T04:40:43.655Z,97049.19
2017-11-25T04:41:15.296Z,97046.29
2017-11-25T04:41:46.936Z,97048.50
2017-11-25T04:42:18.612Z,97042.98
2017-11-25T04:42:50.243Z,97044.34
2017-11-25T04:43:21.878Z,97043.10
2017-11-25T04:43:53.502Z,97047.26
2017-11-25T04:44:25.152Z,97049.38
2017-11-25T04:44:56.788Z,97050.23
2017-11-25T04:45:28.423Z,97048.94
2017-11-25T04:46:00.066Z,97053.13
2017-11-25T04:46:32.016Z,97052.21
2017-11-25T04:47:03.966Z,97052.14
2017-11-25T04:47:35.655Z,97053.34
2017-11-25T04:48:07.301Z,97055.97
2017-11-25T04:48:38.945Z,97055.16
2017-11-25T04:49:10.573Z,97052.21
2017-11-25T04:49:42.204Z,97048.82
2017-11-25T04:50:13.880Z,97051.80
2017-11-25T04:50:45.523Z,97044.57
2017-11-25T04:51:17.155Z,97047.14
2017-11-25T04:51:48.785Z,97047.22
2017-11-25T04:52:20.407Z,97045.56
2017-11-25T04:52:52.032Z,97036.19
2017-11-25T04:53:23.845Z,97034.47
2017-11-25T04:53:55.471Z,97035.84
2017-11-25T04:54:27.100Z,97032.86
2017-11-25T04:54:58.723Z,97033.30
2017-11-25T04:55:30.541Z,97034.98
2017-11-25T04:56:02.181Z,97032.80
2017-11-25T04:56:33.826Z,97031.52
2017-11-25T04:57:05.468Z,97040.88
2017-11-25T04:57:37.107Z,97038.70
2017-11-25T04:58:08.939Z,97042.13
2017-11-25T04:58:40.607Z,97049.87
2017-11-25T04:59:12.343Z,97046.40
2017-11-25T04:59:43.985Z,97050.25
2017-11-25T05:00:15.934Z,97048.65
2017-11-25T05:00:47.605Z,97052.02
2017-11-25T05:01:19.230Z,97050.30
2017-11-25T05:01:51.098Z,97046.93
2017-11-25T05:02:22.783Z,97048.61
2017-11-25T05:02:54.420Z,97046.05
2017-11-25T05:03:26.048Z,97044.76
2017-11-25T05:03:57.686Z,97046.52
2017-11-25T05:04:29.315Z,97052.04
2017-11-25T05:05:00.945Z,97050.41
2017-11-25T05:05:32.588Z,97040.24
2017-11-25T05:06:04.211Z,97038.97
2017-11-25T05:06:35.860Z,97034.70
2017-11-25T05:07:07.501Z,97035.55
2017-11-25T05:07:39.166Z,97038.18
2017-11-25T05:08:10.870Z,97037.69
2017-11-25T05:08:42.512Z,97033.44
2017-11-25T05:09:14.180Z,97031.28
2017-11-25T05:09:45.807Z,97026.67
2017-11-25T05:10:17.479Z,97030.50
2017-11-25T05:10:49.104Z,97020.21
2017-11-25T05:11:20.752Z,97016.38
2017-11-25T05:11:52.377Z,97018.48
2017-11-25T05:12:24.313Z,97019.75
2017-11-25T05:12:55.955Z,97015.94
2017-11-25T05:13:27.596Z,97016.78
2017-11-25T05:13:59.235Z,97021.92
2017-11-25T05:14:30.884Z,97024.88
2017-11-25T05:15:02.525Z,97023.05
2017-11-25T05:15:34.191Z,97029.47
2017-11-25T05:16:05.869Z,97020.23
2017-11-25T05:16:37.499Z,97024.37
2017-11-25T05:17:09.127Z,97027.85
2017-11-25T05:17:40.752Z,97033.42
2017-11-25T05:18:12.379Z,97030.42
2017-11-25T05:18:44.015Z,97033.00
2017-11-25T05:19:15.686Z,97029.22
2017-11-25T05:19:47.320Z,97033.09
2017-11-25T05:20:18.947Z,97024.99
2017-11-25T05:20:50.583Z,97028.39
2017-11-25T05:21:22.256Z,97022.92
2017-11-25T05:21:53.887Z,97021.66
2017-11-25T05:22:25.511Z,97020.84
2017-11-25T05:22:57.150Z,97020.45
2017-11-25T05:23:28.796Z,97017.83
2017-11-25T05:24:00.434Z,97015.67
2017-11-25T05:24:32.076Z,97017.32
2017-11-25T05:25:03.720Z,97017.77
2017-11-25T05:25:35.475Z,97024.97
2017-11-25T05:26:07.309Z,97021.80
2017-11-25T05:26:38.984Z,97022.25
2017-11-25T05:27:10.611Z,97032.03
2017-11-25T05:27:42.549Z,97031.98
2017-11-25T05:28:14.221Z,97029.45
2017-11-25T05:28:45.847Z,97028.11
2017-11-25T05:29:17.488Z,97028.87
2017-11-25T05:29:49.119Z,97029.70
2017-11-25T05:30:20.799Z,97026.72
2017-11-25T05:30:52.435Z,97026.30
2017-11-25T05:31:24.678Z,97030.98
2017-11-25T05:31:56.340Z,97025.04
2017-11-25T05:32:27.973Z,97021.72
2017-11-25T05:32:59.796Z,97015.92
2017-11-25T05:33:31.525Z,97019.59
2017-11-25T05:34:03.156Z,97019.55
2017-11-25T05:34:34.807Z,97017.03
2017-11-25T05:35:06.759Z,97018.38
2017-11-25T05:35:38.621Z,97019.24
2017-11-25T05:36:10.252Z,97021.30
2017-11-25T05:36:41.909Z,97012.86
2017-11-25T05:37:13.869Z,97021.81
2017-11-25T05:37:45.611Z,97023.91
2017-11-25T05:38:17.376Z,97024.78
2017-11-25T05:38:49.773Z,97025.19
2017-11-25T05:39:32.187Z,97027.73
2017-11-25T05:40:03.927Z,97025.99
2017-11-25T05:40:35.993Z,97021.80
2017-11-25T05:41:07.647Z,97019.70
2017-11-25T05:41:39.549Z,97019.70
2017-11-25T05:42:11.239Z,97016.69
2017-11-25T05:42:42.872Z,97020.12
2017-11-25T05:43:14.503Z,97009.54
2017-11-25T05:43:46.176Z,96998.44
2017-11-25T05:44:20.033Z,96998.41
2017-11-25T05:44:51.708Z,96992.89
2017-11-25T05:45:23.331Z,96993.62
2017-11-25T05:45:54.964Z,96989.02
2017-11-25T05:46:26.764Z,96988.90
2017-11-25T05:46:58.392Z,96991.03
2017-11-25T05:47:30.030Z,96988.08
2017-11-25T05:48:01.676Z,96989.78
2017-11-25T05:48:33.320Z,96985.51
2017-11-25T05:49:04.959Z,96981.35
2017-11-25T05:49:36.757Z,96980.50
2017-11-25T05:50:08.394Z,96973.27
2017-11-25T05:50:40.045Z,96980.75
2017-11-25T05:51:11.989Z,96977.67
2017-11-25T05:51:43.628Z,96977.73
2017-11-25T05:52:15.271Z,96983.30
2017-11-25T05:52:46.915Z,96984.59
2017-11-25T05:53:18.557Z,96989.76
2017-11-25T05:53:50.192Z,96978.72
2017-11-25T05:54:21.828Z,96988.06
2017-11-25T05:54:53.480Z,96979.38
2017-11-25T05:55:25.152Z,96974.27
2017-11-25T05:55:56.776Z,96972.45
2017-11-25T05:56:28.414Z,96975.41
2017-11-25T05:57:00.051Z,96966.37
2017-11-25T05:57:31.695Z,96965.53
2017-11-25T05:58:03.339Z,96961.19
2017-11-25T05:58:34.975Z,96968.83
2017-11-25T05:59:06.605Z,96966.23
2017-11-25T05:59:38.259Z,96958.47
2017-11-25T06:00:09.897Z,96960.17
2017-11-25T06:00:41.585Z,96959.79
2017-11-25T06:01:13.446Z,96950.92
2017-11-25T06:01:45.071Z,96948.81
2017-11-25T06:02:16.963Z,96940.27
2017-11-25T06:02:48.733Z,96942.08
2017-11-25T06:03:20.375Z,96937.02
2017-11-25T06:03:52.237Z,96941.69
2017-11-25T06:04:23.867Z,96938.73
2017-11-25T06:04:55.600Z,96946.05
2017-11-25T06:05:27.275Z,96947.87
2017-11-25T06:05:58.901Z,96944.95
2017-11-25T06:06:30.555Z,96946.29
2017-11-25T06:07:02.183Z,96947.95
2017-11-25T06:07:33.816Z,96943.72
2017-11-25T06:08:05.453Z,96948.73
2017-11-25T06:08:37.324Z,96941.06
2017-11-25T06:09:08.951Z,96941.06
2017-11-25T06:09:40.685Z,96941.16
2017-11-25T06:10:12.327Z,96941.58
2017-11-25T06:10:43.995Z,96945.85
2017-11-25T06:11:15.620Z,96945.02
2017-11-25T06:11:47.489Z,96944.99
2017-11-25T06:12:19.120Z,96946.27
2017-11-25T06:12:50.748Z,96940.72